createdAt,value
2023-05-06T00:02:08.227Z,73.45
2023-05-06T00:04:34.875Z,73.53
2023-05-06T00:07:01.684Z,73.88
2023-05-06T00:09:28.158Z,74.52
2023-05-06T00:11:54.755Z,73.80
2023-05-06T00:14:21.343Z,74.00
2023-05-06T00:16:48.131Z,74.10
2023-05-06T00:19:14.648Z,74.18
2023-05-06T00:21:41.108Z,74.47
2023-05-06T00:24:07.654Z,74.49
2023-05-06T00:26:34.196Z,74.24
2023-05-06T00:29:00.703Z,73.61
2023-05-06T00:31:27.316Z,73.60
2023-05-06T00:33:53.811Z,73.87
2023-05-06T00:36:20.596Z,74.34
2023-05-06T00:38:47.035Z,74.22
2023-05-06T00:41:13.518Z,74.12
2023-05-06T00:43:40.027Z,74.51
2023-05-06T00:46:09.519Z,73.94
2023-05-06T00:48:36.523Z,74.64
2023-05-06T00:51:03.260Z,74.18
2023-05-06T00:53:30.358Z,74.50
2023-05-06T00:55:57.528Z,73.96
2023-05-06T00:58:24.077Z,74.27
2023-05-06T01:00:52.211Z,75.07
2023-05-06T01:03:18.990Z,75.48
2023-05-06T01:05:59.764Z,76.56
2023-05-06T01:08:37.400Z,77.02
2023-05-06T01:11:16.042Z,76.83
2023-05-06T01:13:48.555Z,75.57
2023-05-06T01:16:17.936Z,76.82
2023-05-06T01:18:44.800Z,75.95
2023-05-06T01:21:12.870Z,76.68
2023-05-06T01:24:00.008Z,77.05
2023-05-06T01:26:27.361Z,76.42
2023-05-06T01:28:54.909Z,76.90
2023-05-06T01:31:33.447Z,76.87
2023-05-06T01:34:18.157Z,78.26
2023-05-06T01:36:53.722Z,76.95
2023-05-06T01:39:29.956Z,76.79
2023-05-06T01:41:59.562Z,76.24
2023-05-06T01:44:29.118Z,76.69
2023-05-06T01:46:56.388Z,76.08
2023-05-06T01:49:26.076Z,76.81
2023-05-06T01:51:53.466Z,76.79
2023-05-06T01:54:19.956Z,76.55
2023-05-06T01:56:46.687Z,77.31
2023-05-06T01:59:13.182Z,76.28
2023-05-06T02:01:39.774Z,77.24
2023-05-06T02:04:06.309Z,76.86
2023-05-06T02:06:33.183Z,76.36
2023-05-06T02:08:59.664Z,76.82
2023-05-06T02:11:26.269Z,77.24
2023-05-06T02:13:52.982Z,76.44
2023-05-06T02:16:20.214Z,77.56
2023-05-06T02:18:46.702Z,76.98
2023-05-06T02:21:13.273Z,77.58
2023-05-06T02:23:39.951Z,77.00
2023-05-06T02:26:06.435Z,77.66
2023-05-06T02:28:32.966Z,77.78
2023-05-06T02:30:59.488Z,77.08
2023-05-06T02:33:26.159Z,77.47
2023-05-06T02:35:52.719Z,77.89
2023-05-06T02:38:19.654Z,77.33
2023-05-06T02:40:46.142Z,77.80
2023-05-06T02:43:12.735Z,77.72
2023-05-06T02:45:39.322Z,78.13
2023-05-06T02:48:06.295Z,77.94
2023-05-06T02:50:35.401Z,78.53
2023-05-06T02:53:01.875Z,78.30
2023-05-06T02:55:28.450Z,78.01
2023-05-06T02:57:54.937Z,78.22
2023-05-06T03:00:21.644Z,78.31
2023-05-06T03:02:48.265Z,78.38
2023-05-06T03:05:14.790Z,78.84
2023-05-06T03:07:41.372Z,78.43
2023-05-06T03:10:08.238Z,78.70
2023-05-06T03:12:34.873Z,78.33
2023-05-06T03:15:01.581Z,78.34
2023-05-06T03:17:28.129Z,78.18
2023-05-06T03:19:54.659Z,77.68
2023-05-06T03:22:21.112Z,78.14
2023-05-06T03:24:47.584Z,78.04
2023-05-06T03:27:14.191Z,78.50
2023-05-06T03:29:40.780Z,78.51
2023-05-06T03:32:07.272Z,77.80
2023-05-06T03:34:33.931Z,77.96
2023-05-06T03:37:00.492Z,77.63
2023-05-06T03:39:26.970Z,78.22
2023-05-06T03:41:53.514Z,78.29
2023-05-06T03:44:20.001Z,78.28
2023-05-06T03:46:46.517Z,78.35
2023-05-06T03:49:13.101Z,78.26
2023-05-06T03:51:39.682Z,78.45
2023-05-06T03:54:06.264Z,78.27
2023-05-06T03:56:32.841Z,78.28
2023-05-06T03:58:59.364Z,78.45
2023-05-06T04:01:26.170Z,78.45
2023-05-06T04:03:54.402Z,78.24
2023-05-06T04:06:20.988Z,78.79
2023-05-06T04:08:47.581Z,78.99
2023-05-06T04:11:14.395Z,78.66
2023-05-06T04:13:40.905Z,78.82
2023-05-06T04:16:07.662Z,79.15
2023-05-06T04:18:34.343Z,78.90
2023-05-06T04:21:01.012Z,79.02
2023-05-06T04:23:27.625Z,79.24
2023-05-06T04:25:54.136Z,79.94
2023-05-06T04:28:20.824Z,78.79
2023-05-06T04:30:47.399Z,79.09
2023-05-06T04:33:13.950Z,79.31
2023-05-06T04:35:41.044Z,78.81
2023-05-06T04:38:07.665Z,78.97
2023-05-06T04:40:36.501Z,79.36
2023-05-06T04:43:03.087Z,79.33
2023-05-06T04:45:29.954Z,79.15
2023-05-06T04:47:56.656Z,79.12
2023-05-06T04:50:23.251Z,79.57
2023-05-06T04:52:49.804Z,79.42
2023-05-06T04:55:16.395Z,79.60
2023-05-06T04:57:42.881Z,79.45
2023-05-06T05:00:10.669Z,79.93
2023-05-06T05:02:37.702Z,79.97
2023-05-06T05:05:05.119Z,79.75
2023-05-06T05:07:34.071Z,80.45
2023-05-06T05:10:00.664Z,80.04
2023-05-06T05:12:27.104Z,80.50
2023-05-06T05:14:53.671Z,80.44
2023-05-06T05:17:20.199Z,80.67
2023-05-06T05:19:49.220Z,80.80
2023-05-06T05:22:15.925Z,80.17
2023-05-06T05:24:42.421Z,80.46
2023-05-06T05:27:09.087Z,80.63
2023-05-06T05:29:35.640Z,80.52
2023-05-06T05:32:02.204Z,80.86
2023-05-06T05:34:29.435Z,80.60
2023-05-06T05:36:57.628Z,81.39
2023-05-06T05:39:24.202Z,81.38
2023-05-06T05:41:50.730Z,81.47
2023-05-06T05:44:17.280Z,80.77
2023-05-06T05:46:43.988Z,81.67
2023-05-06T05:49:10.606Z,81.37
2023-05-06T05:51:37.160Z,81.07
2023-05-06T05:54:03.750Z,81.34
2023-05-06T05:56:30.320Z,81.33
2023-05-06T05:58:56.850Z,81.80
2023-05-06T06:01:23.444Z,81.24
2023-05-06T06:03:50.267Z,81.73
2023-05-06T06:06:20.327Z,82.07
2023-05-06T06:08:46.900Z,80.82
2023-05-06T06:11:13.395Z,81.64
2023-05-06T06:13:40.142Z,81.55
2023-05-06T06:16:09.861Z,80.75
2023-05-06T06:18:36.466Z,81.13
2023-05-06T06:21:03.095Z,80.18
2023-05-06T06:23:40.383Z,80.25
2023-05-06T06:26:06.936Z,81.04
2023-05-06T06:28:35.790Z,80.69
2023-05-06T06:31:02.403Z,81.14
2023-05-06T06:33:28.889Z,81.45
2023-05-06T06:35:55.606Z,81.30
2023-05-06T06:38:22.758Z,81.05
2023-05-06T06:40:49.356Z,81.17
2023-05-06T06:43:15.871Z,81.07
2023-05-06T06:45:50.128Z,81.58
2023-05-06T06:48:16.908Z,80.65
2023-05-06T06:50:45.717Z,81.03
2023-05-06T06:53:14.315Z,80.66
2023-05-06T06:55:44.883Z,80.53
2023-05-06T06:58:11.583Z,80.15
2023-05-06T07:01:05.113Z,80.85
2023-05-06T07:03:41.217Z,80.07
2023-05-06T07:06:18.553Z,80.06
2023-05-06T07:09:03.770Z,80.04
2023-05-06T07:11:47.796Z,79.42
2023-05-06T07:14:14.369Z,80.05
2023-05-06T07:16:41.004Z,79.84
2023-05-06T07:19:07.828Z,79.42
2023-05-06T07:21:34.429Z,80.02
2023-05-06T07:24:01.139Z,79.68
2023-05-06T07:26:27.609Z,79.89
2023-05-06T07:28:54.212Z,79.99
2023-05-06T07:31:23.925Z,80.39
2023-05-06T07:33:58.949Z,79.35
2023-05-06T07:36:26.970Z,79.98
2023-05-06T07:38:56.366Z,79.30
2023-05-06T07:41:25.209Z,79.32
2023-05-06T07:43:51.737Z,80.10
2023-05-06T07:46:19.958Z,80.13
2023-05-06T07:48:46.857Z,79.58
2023-05-06T07:51:14.557Z,80.04
2023-05-06T07:53:46.354Z,79.98
2023-05-06T07:56:12.907Z,79.76
2023-05-06T07:58:39.633Z,80.49
2023-05-06T08:01:06.343Z,80.64
2023-05-06T08:03:34.509Z,79.87
2023-05-06T08:06:01.362Z,80.43
2023-05-06T08:08:28.126Z,79.74
2023-05-06T08:10:58.922Z,81.09
2023-05-06T08:13:26.080Z,80.17
2023-05-06T08:15:54.327Z,80.84
2023-05-06T08:18:23.567Z,80.45
2023-05-06T08:20:53.103Z,80.87
2023-05-06T08:23:20.806Z,80.90
2023-05-06T08:25:47.369Z,80.45
2023-05-06T08:28:13.834Z,80.70
2023-05-06T08:30:40.431Z,80.69
2023-05-06T08:33:06.988Z,81.29
2023-05-06T08:35:33.740Z,80.89
2023-05-06T08:38:00.241Z,81.21
2023-05-06T08:40:27.935Z,81.07
2023-05-06T08:42:57.584Z,81.18
2023-05-06T08:45:29.536Z,81.49
2023-05-06T08:47:59.070Z,81.36
2023-05-06T08:50:28.197Z,82.54
2023-05-06T08:52:54.694Z,83.03
2023-05-06T08:55:24.241Z,83.49
2023-05-06T08:57:53.129Z,84.89
2023-05-06T09:00:19.719Z,84.69
2023-05-06T09:02:46.336Z,84.70
2023-05-06T09:05:13.078Z,84.81
2023-05-06T09:07:39.712Z,85.74
2023-05-06T09:10:17.825Z,86.29
2023-05-06T09:12:44.418Z,86.54
2023-05-06T09:15:13.178Z,87.72
2023-05-06T09:17:40.002Z,88.00
2023-05-06T09:20:09.436Z,88.36
2023-05-06T09:22:39.713Z,89.75
2023-05-06T09:25:07.196Z,89.82
2023-05-06T09:27:36.690Z,92.02
2023-05-06T09:30:13.857Z,91.65
2023-05-06T09:32:41.720Z,91.85
2023-05-06T09:35:10.686Z,92.35
2023-05-06T09:37:37.476Z,92.08
2023-05-06T09:40:04.276Z,92.02
2023-05-06T09:42:31.386Z,92.13
2023-05-06T09:45:07.504Z,94.24
2023-05-06T09:47:38.188Z,93.19
2023-05-06T09:50:05.328Z,93.04
2023-05-06T09:52:31.938Z,93.22
2023-05-06T09:54:59.346Z,93.94
2023-05-06T09:57:26.213Z,93.81
2023-05-06T09:59:54.213Z,96.28
2023-05-06T10:02:23.132Z,96.50
2023-05-06T10:04:50.564Z,95.14
2023-05-06T10:07:22.565Z,98.84
2023-05-06T10:09:50.039Z,96.50
2023-05-06T10:12:16.899Z,95.79
2023-05-06T10:14:43.368Z,96.98
2023-05-06T10:17:11.512Z,96.95
2023-05-06T10:19:45.913Z,100.00
2023-05-06T10:22:27.111Z,100.00
2023-05-06T10:25:03.477Z,100.00
2023-05-06T10:27:33.020Z,98.07
2023-05-06T10:30:00.349Z,98.06
2023-05-06T10:32:32.067Z,100.00
2023-05-06T10:35:10.258Z,100.00
2023-05-06T10:37:38.882Z,99.03
2023-05-06T10:40:06.110Z,98.15
2023-05-06T10:42:35.753Z,100.00
2023-05-06T10:45:04.743Z,100.00
2023-05-06T10:47:56.287Z,100.00
2023-05-06T10:50:27.152Z,100.00
2023-05-06T10:52:59.004Z,99.41
2023-05-06T10:55:30.742Z,99.37
2023-05-06T10:58:01.576Z,100.00
2023-05-06T11:00:32.812Z,100.00
2023-05-06T11:03:23.654Z,100.00
2023-05-06T11:05:51.924Z,100.00
2023-05-06T11:08:24.387Z,100.00
2023-05-06T11:10:51.771Z,100.00
2023-05-06T11:13:19.915Z,100.00
2023-05-06T11:15:46.565Z,100.00
2023-05-06T11:18:25.540Z,100.00
2023-05-06T11:21:12.776Z,100.00
2023-05-06T11:23:42.639Z,100.00
2023-05-06T11:26:10.381Z,100.00
2023-05-06T11:28:37.525Z,100.00
2023-05-06T11:31:04.470Z,100.00
2023-05-06T11:33:35.812Z,100.00
2023-05-06T11:36:06.565Z,100.00
2023-05-06T11:38:45.880Z,100.00
2023-05-06T11:41:13.269Z,100.00
2023-05-06T11:43:40.157Z,100.00
2023-05-06T11:46:06.979Z,100.00
2023-05-06T11:48:33.533Z,100.00
2023-05-06T11:51:00.416Z,100.00
2023-05-06T11:53:26.977Z,100.00
2023-05-06T11:55:53.997Z,100.00
2023-05-06T11:58:24.684Z,100.00
2023-05-06T12:01:01.064Z,100.00
2023-05-06T12:03:29.584Z,100.00
2023-05-06T12:05:56.812Z,100.00
2023-05-06T12:08:28.332Z,100.00
2023-05-06T12:11:00.615Z,100.00
2023-05-06T12:13:27.847Z,100.00
2023-05-06T12:15:55.888Z,100.00
2023-05-06T12:18:23.924Z,100.00
2023-05-06T12:20:53.271Z,100.00
2023-05-06T12:23:21.697Z,100.00
2023-05-06T12:26:04.042Z,100.00
2023-05-06T12:28:32.144Z,100.00
2023-05-06T12:30:58.672Z,100.00
2023-05-06T12:33:25.268Z,100.00
2023-05-06T12:35:52.629Z,100.00
2023-05-06T12:38:19.209Z,100.00
2023-05-06T12:40:53.300Z,100.00
2023-05-06T12:43:31.430Z,100.00
2023-05-06T12:46:08.949Z,100.00
2023-05-06T12:48:35.583Z,100.00
2023-05-06T12:51:18.806Z,100.00
2023-05-06T12:53:46.012Z,100.00
2023-05-06T12:56:12.794Z,100.00
2023-05-06T12:58:39.778Z,100.00
2023-05-06T13:01:07.644Z,100.00
2023-05-06T13:03:38.183Z,100.00
2023-05-06T13:06:05.425Z,100.00
2023-05-06T13:08:31.920Z,100.00
2023-05-06T13:10:59.676Z,100.00
2023-05-06T13:13:26.261Z,100.00
2023-05-06T13:15:53.709Z,100.00
2023-05-06T13:18:20.434Z,100.00
2023-05-06T13:20:47.064Z,100.00
2023-05-06T13:23:13.535Z,100.00
2023-05-06T13:25:48.263Z,100.00
2023-05-06T13:28:22.706Z,100.00
2023-05-06T13:30:49.240Z,100.00
2023-05-06T13:33:16.061Z,100.00
2023-05-06T13:35:42.511Z,100.00
2023-05-06T13:38:08.998Z,100.00
2023-05-06T13:40:35.556Z,100.00
2023-05-06T13:43:02.025Z,100.00
2023-05-06T13:45:28.611Z,100.00
2023-05-06T13:47:55.166Z,100.00
2023-05-06T13:50:22.027Z,100.00
2023-05-06T13:52:48.768Z,100.00
2023-05-06T13:55:16.862Z,100.00
2023-05-06T13:57:44.306Z,100.00
2023-05-06T14:00:13.166Z,100.00
2023-05-06T14:02:39.773Z,100.00
2023-05-06T14:05:06.935Z,100.00
2023-05-06T14:07:33.487Z,100.00
2023-05-06T14:10:00.115Z,100.00
2023-05-06T14:12:26.631Z,100.00
2023-05-06T14:14:53.239Z,100.00
2023-05-06T14:17:20.106Z,100.00
2023-05-06T14:19:46.596Z,100.00
2023-05-06T14:22:13.134Z,100.00
2023-05-06T14:24:39.631Z,100.00
2023-05-06T14:27:06.149Z,100.00
2023-05-06T14:29:32.667Z,100.00
2023-05-06T14:31:59.345Z,100.00
2023-05-06T14:34:27.030Z,100.00
2023-05-06T14:36:53.501Z,100.00
2023-05-06T14:39:19.980Z,100.00
2023-05-06T14:41:46.959Z,100.00
2023-05-06T14:44:13.502Z,100.00
2023-05-06T14:46:40.063Z,100.00
2023-05-06T14:49:06.731Z,100.00
2023-05-06T14:51:34.374Z,100.00
2023-05-06T14:54:01.300Z,100.00
2023-05-06T14:56:27.782Z,100.00
2023-05-06T14:58:54.311Z,100.00
2023-05-06T15:01:21.083Z,100.00
2023-05-06T15:03:47.671Z,100.00
2023-05-06T15:06:14.235Z,100.00
2023-05-06T15:08:40.934Z,100.00
2023-05-06T15:11:07.968Z,100.00
2023-05-06T15:13:34.504Z,100.00
2023-05-06T15:16:01.044Z,100.00
2023-05-06T15:18:27.562Z,100.00
2023-05-06T15:20:55.067Z,100.00
2023-05-06T15:23:22.346Z,100.00
2023-05-06T15:25:48.789Z,100.00
2023-05-06T15:28:17.645Z,100.00
2023-05-06T15:30:44.195Z,100.00
2023-05-06T15:33:10.651Z,100.00
2023-05-06T15:35:37.077Z,100.00
2023-05-06T15:38:04.321Z,100.00
2023-05-06T15:40:31.155Z,100.00
2023-05-06T15:42:58.724Z,100.00
2023-05-06T15:45:25.688Z,100.00
2023-05-06T15:47:52.288Z,100.00
2023-05-06T15:50:32.050Z,100.00
2023-05-06T15:52:59.739Z,100.00
2023-05-06T15:55:26.617Z,100.00
2023-05-06T15:57:54.792Z,100.00
2023-05-06T16:00:22.348Z,100.00
2023-05-06T16:02:49.141Z,100.00
2023-05-06T16:05:16.011Z,100.00
2023-05-06T16:07:42.575Z,100.00
2023-05-06T16:10:09.330Z,100.00
2023-05-06T16:12:36.091Z,100.00
2023-05-06T16:15:03.480Z,100.00
2023-05-06T16:17:30.330Z,100.00
2023-05-06T16:19:56.860Z,100.00
2023-05-06T16:22:23.361Z,100.00
2023-05-06T16:24:49.816Z,100.00
2023-05-06T16:27:16.408Z,100.00
2023-05-06T16:29:42.870Z,100.00
2023-05-06T16:32:09.340Z,100.00
2023-05-06T16:34:39.004Z,100.00
2023-05-06T16:37:07.809Z,100.00
2023-05-06T16:39:34.342Z,100.00
2023-05-06T16:42:01.128Z,100.00
2023-05-06T16:44:29.161Z,100.00
2023-05-06T16:46:56.021Z,100.00
2023-05-06T16:49:22.630Z,100.00
2023-05-06T16:51:49.126Z,100.00
2023-05-06T16:54:15.664Z,100.00
2023-05-06T16:56:51.497Z,100.00
2023-05-06T16:59:21.398Z,100.00
2023-05-06T17:01:48.629Z,100.00
2023-05-06T17:04:16.016Z,100.00
2023-05-06T17:06:42.567Z,100.00
2023-05-06T17:09:09.033Z,100.00
2023-05-06T17:11:35.486Z,100.00
2023-05-06T17:14:02.081Z,100.00
2023-05-06T17:16:28.613Z,100.00
2023-05-06T17:18:55.102Z,100.00
2023-05-06T17:21:21.615Z,100.00
2023-05-06T17:23:48.166Z,100.00
2023-05-06T17:26:17.673Z,100.00
2023-05-06T17:28:44.154Z,100.00
2023-05-06T17:31:10.734Z,100.00
2023-05-06T17:33:37.351Z,100.00
2023-05-06T17:36:03.985Z,100.00
2023-05-06T17:38:30.626Z,100.00
2023-05-06T17:40:57.101Z,100.00
2023-05-06T17:43:23.556Z,100.00
2023-05-06T17:45:50.057Z,100.00
2023-05-06T17:48:16.631Z,100.00
2023-05-06T17:50:43.096Z,100.00
2023-05-06T17:53:09.624Z,100.00
2023-05-06T17:55:36.328Z,100.00
2023-05-06T17:58:03.181Z,100.00
2023-05-06T18:00:29.714Z,100.00
2023-05-06T18:02:56.294Z,100.00
2023-05-06T18:05:24.600Z,100.00
2023-05-06T18:07:51.587Z,100.00
2023-05-06T18:10:21.302Z,100.00
2023-05-06T18:12:48.069Z,100.00
2023-05-06T18:15:14.810Z,100.00
2023-05-06T18:17:41.384Z,100.00
2023-05-06T18:20:08.707Z,100.00
2023-05-06T18:22:35.234Z,100.00
2023-05-06T18:25:01.856Z,100.00
2023-05-06T18:27:29.608Z,100.00
2023-05-06T18:29:56.167Z,100.00
2023-05-06T18:32:22.714Z,100.00
2023-05-06T18:34:49.310Z,100.00
2023-05-06T18:37:15.785Z,100.00
2023-05-06T18:39:45.571Z,100.00
2023-05-06T18:42:12.093Z,100.00
2023-05-06T18:44:38.720Z,100.00
2023-05-06T18:47:05.511Z,100.00
2023-05-06T18:49:32.093Z,100.00
2023-05-06T18:51:58.821Z,100.00
2023-05-06T18:54:25.449Z,100.00
2023-05-06T18:56:52.154Z,100.00
2023-05-06T18:59:19.837Z,100.00
2023-05-06T19:01:46.532Z,100.00
2023-05-06T19:04:13.254Z,100.00
2023-05-06T19:06:39.870Z,100.00
2023-05-06T19:09:09.695Z,100.00
2023-05-06T19:11:36.515Z,100.00
2023-05-06T19:14:03.158Z,100.00
2023-05-06T19:16:29.777Z,100.00
2023-05-06T19:18:56.341Z,100.00
2023-05-06T19:21:23.111Z,100.00
2023-05-06T19:23:49.840Z,100.00
2023-05-06T19:26:16.390Z,100.00
2023-05-06T19:28:42.893Z,100.00
2023-05-06T19:31:10.804Z,100.00
2023-05-06T19:33:38.246Z,100.00
2023-05-06T19:36:05.419Z,100.00
2023-05-06T19:38:31.931Z,100.00
2023-05-06T19:40:58.500Z,100.00
2023-05-06T19:43:25.218Z,100.00
2023-05-06T19:45:51.792Z,100.00
2023-05-06T19:48:19.590Z,100.00
2023-05-06T19:50:46.183Z,100.00
2023-05-06T19:53:12.741Z,100.00
2023-05-06T19:55:39.211Z,100.00
2023-05-06T19:58:05.791Z,100.00
2023-05-06T20:00:32.691Z,100.00
2023-05-06T20:03:00.489Z,100.00
2023-05-06T20:05:31.397Z,100.00
2023-05-06T20:08:01.238Z,100.00
2023-05-06T20:10:28.720Z,100.00
2023-05-06T20:12:57.369Z,100.00
2023-05-06T20:15:24.495Z,100.00
2023-05-06T20:17:51.094Z,100.00
2023-05-06T20:20:17.643Z,100.00
2023-05-06T20:22:44.112Z,100.00
2023-05-06T20:25:14.372Z,100.00
2023-05-06T20:27:40.836Z,100.00
2023-05-06T20:30:09.518Z,100.00
2023-05-06T20:32:37.402Z,100.00
2023-05-06T20:35:04.786Z,100.00
2023-05-06T20:37:31.677Z,100.00
2023-05-06T20:39:58.270Z,100.00
2023-05-06T20:42:24.973Z,100.00
2023-05-06T20:44:51.860Z,100.00
2023-05-06T20:47:19.017Z,100.00
2023-05-06T20:49:46.015Z,100.00
2023-05-06T20:52:14.604Z,100.00
2023-05-06T20:54:42.630Z,100.00
2023-05-06T20:57:10.322Z,100.00
2023-05-06T20:59:36.890Z,100.00
2023-05-06T21:02:03.948Z,100.00
2023-05-06T21:04:31.392Z,100.00
2023-05-06T21:06:58.308Z,100.00
2023-05-06T21:09:27.506Z,100.00
2023-05-06T21:12:00.894Z,100.00
2023-05-06T21:14:27.614Z,100.00
2023-05-06T21:16:54.272Z,100.00
2023-05-06T21:19:21.003Z,100.00
2023-05-06T21:21:47.594Z,100.00
2023-05-06T21:24:14.278Z,100.00
2023-05-06T21:26:40.930Z,100.00
2023-05-06T21:29:07.495Z,100.00
2023-05-06T21:31:34.318Z,100.00
2023-05-06T21:34:01.228Z,100.00
2023-05-06T21:36:27.762Z,100.00
2023-05-06T21:39:09.521Z,100.00
2023-05-06T21:41:36.700Z,100.00
2023-05-06T21:44:04.786Z,100.00
2023-05-06T21:46:32.210Z,100.00
2023-05-06T21:48:59.529Z,100.00
2023-05-06T21:51:32.306Z,100.00
2023-05-06T21:53:59.166Z,100.00
2023-05-06T21:56:25.852Z,100.00
2023-05-06T21:58:54.720Z,100.00
2023-05-06T22:01:22.259Z,100.00
2023-05-06T22:03:48.895Z,100.00
2023-05-06T22:06:15.872Z,100.00
2023-05-06T22:08:42.677Z,100.00
2023-05-06T22:11:09.211Z,100.00
2023-05-06T22:13:36.177Z,100.00
2023-05-06T22:16:02.992Z,100.00
2023-05-06T22:18:29.948Z,100.00
2023-05-06T22:20:57.788Z,100.00
2023-05-06T22:23:25.057Z,100.00
2023-05-06T22:25:52.126Z,100.00
2023-05-06T22:28:19.333Z,100.00
2023-05-06T22:30:45.984Z,100.00
2023-05-06T22:33:12.624Z,100.00
2023-05-06T22:35:39.126Z,100.00
2023-05-06T22:38:05.651Z,100.00
2023-05-06T22:40:32.127Z,100.00
2023-05-06T22:42:58.634Z,100.00
2023-05-06T22:45:25.121Z,100.00
2023-05-06T22:47:51.676Z,100.00
2023-05-06T22:50:18.358Z,100.00
2023-05-06T22:52:44.848Z,100.00
2023-05-06T22:55:11.697Z,100.00
2023-05-06T22:57:38.668Z,100.00
2023-05-06T23:00:07.096Z,100.00
2023-05-06T23:02:33.640Z,100.00
2023-05-06T23:05:00.871Z,100.00
2023-05-06T23:07:27.365Z,100.00
2023-05-06T23:09:54.207Z,100.00
2023-05-06T23:12:20.717Z,100.00
2023-05-06T23:14:47.238Z,100.00
2023-05-06T23:17:13.841Z,100.00
2023-05-06T23:19:40.405Z,100.00
2023-05-06T23:22:06.841Z,100.00
2023-05-06T23:24:33.328Z,100.00
2023-05-06T23:26:59.857Z,100.00
2023-05-06T23:29:26.309Z,100.00
2023-05-06T23:31:52.791Z,100.00
2023-05-06T23:34:19.414Z,100.00
2023-05-06T23:36:45.911Z,100.00
2023-05-06T23:39:12.510Z,100.00
2023-05-06T23:41:39.045Z,100.00
2023-05-06T23:44:06.222Z,100.00
2023-05-06T23:46:33.075Z,100.00
2023-05-06T23:48:59.794Z,100.00
2023-05-06T23:51:26.574Z,100.00
2023-05-06T23:53:53.321Z,100.00
2023-05-06T23:56:21.641Z,100.00
2023-05-06T23:58:48.291Z,100.00
